createdAt,value
2018-06-05T00:00:24.268Z,13.13
2018-06-05T00:02:53.712Z,13.00
2018-06-05T00:05:24.244Z,14.03
2018-06-05T00:07:53.908Z,12.67
2018-06-05T00:10:23.562Z,14.17
2018-06-05T00:12:52.988Z,12.27
2018-06-05T00:15:22.208Z,11.47
2018-06-05T00:17:51.408Z,11.27
2018-06-05T00:20:21.608Z,11.17
2018-06-05T00:22:50.806Z,12.60
2018-06-05T00:25:20.263Z,11.70
2018-06-05T00:27:49.689Z,12.50
2018-06-05T00:30:19.161Z,12.97
2018-06-05T00:32:48.848Z,11.57
2018-06-05T00:35:18.271Z,12.10
2018-06-05T00:37:47.719Z,10.90
2018-06-05T00:40:17.372Z,13.00
2018-06-05T00:42:47.056Z,11.00
2018-06-05T00:45:16.705Z,10.23
2018-06-05T00:47:46.397Z,12.17
2018-06-05T00:50:16.099Z,14.73
2018-06-05T00:52:45.757Z,12.07
2018-06-05T00:55:15.411Z,11.73
2018-06-05T00:57:44.869Z,10.53
2018-06-05T01:00:14.307Z,11.30
2018-06-05T01:02:43.973Z,16.50
2018-06-05T01:05:13.605Z,11.57
2018-06-05T01:07:43.373Z,10.47
2018-06-05T01:10:12.802Z,9.50
2018-06-05T01:12:42.247Z,9.80
2018-06-05T01:15:11.913Z,12.00
2018-06-05T01:17:41.329Z,10.30
2018-06-05T01:20:11.053Z,11.00
2018-06-05T01:22:40.711Z,11.00
2018-06-05T01:25:10.175Z,10.57
2018-06-05T01:27:39.365Z,9.10
2018-06-05T01:30:08.559Z,10.07
2018-06-05T01:32:37.987Z,9.53
2018-06-05T01:35:07.675Z,12.20
2018-06-05T01:37:37.093Z,10.37
2018-06-05T01:40:06.551Z,11.20
2018-06-05T01:42:36.239Z,10.40
2018-06-05T01:45:06.079Z,10.20
2018-06-05T01:47:35.499Z,9.60
2018-06-05T01:50:04.965Z,10.23
2018-06-05T01:52:34.411Z,10.43
2018-06-05T01:55:04.163Z,10.10
2018-06-05T01:57:33.541Z,11.60
2018-06-05T02:00:02.999Z,10.40
2018-06-05T02:02:32.650Z,10.73
2018-06-05T02:05:02.087Z,12.00
2018-06-05T02:07:31.536Z,9.23
2018-06-05T02:10:00.957Z,11.30
2018-06-05T02:12:30.496Z,9.40
2018-06-05T02:15:00.139Z,8.37
2018-06-05T02:17:29.537Z,8.70
2018-06-05T02:19:58.988Z,8.20
2018-06-05T02:22:28.629Z,9.03
2018-06-05T02:24:58.291Z,8.43
2018-06-05T02:27:27.675Z,7.50
2018-06-05T02:29:57.138Z,7.17
2018-06-05T02:32:26.553Z,7.43
2018-06-05T02:34:55.750Z,9.87
2018-06-05T02:37:25.184Z,10.10
2018-06-05T02:39:54.873Z,10.40
2018-06-05T02:42:24.289Z,7.00
2018-06-05T02:44:53.488Z,7.07
2018-06-05T02:47:22.687Z,7.50
2018-06-05T02:49:52.151Z,9.30
2018-06-05T02:52:21.788Z,8.83
2018-06-05T02:54:51.227Z,5.73
2018-06-05T02:57:20.409Z,5.10
2018-06-05T02:59:49.849Z,5.63
2018-06-05T03:02:19.556Z,7.83
2018-06-05T03:04:49.003Z,5.97
2018-06-05T03:07:18.176Z,7.37
2018-06-05T03:09:47.383Z,7.53
2018-06-05T03:12:16.550Z,5.00
2018-06-05T03:14:46.058Z,4.77
2018-06-05T03:17:15.448Z,6.33
2018-06-05T03:19:44.699Z,5.60
2018-06-05T03:22:14.251Z,6.40
2018-06-05T03:24:43.640Z,5.73
2018-06-05T03:27:13.086Z,6.93
2018-06-05T03:29:42.758Z,5.50
2018-06-05T03:32:12.427Z,6.20
2018-06-05T03:34:42.079Z,6.30
2018-06-05T03:37:11.760Z,7.63
2018-06-05T03:39:41.424Z,4.80
2018-06-05T03:42:10.816Z,5.70
2018-06-05T03:44:39.981Z,5.13
2018-06-05T03:47:09.212Z,5.83
2018-06-05T03:49:41.773Z,6.63
2018-06-05T03:52:11.149Z,5.60
2018-06-05T03:54:40.567Z,6.43
2018-06-05T03:57:10.040Z,6.03
2018-06-05T03:59:39.198Z,5.57
2018-06-05T04:02:08.389Z,5.83
2018-06-05T04:04:37.567Z,8.10
2018-06-05T04:07:06.820Z,5.73
2018-06-05T04:09:36.252Z,5.57
2018-06-05T04:12:05.995Z,5.40
2018-06-05T04:14:35.395Z,8.37
2018-06-05T04:17:04.708Z,12.50
2018-06-05T04:19:33.871Z,7.23
2018-06-05T04:22:03.370Z,7.00
2018-06-05T04:24:33.026Z,8.83
2018-06-05T04:27:02.744Z,5.00
2018-06-05T04:29:32.104Z,6.73
2018-06-05T04:32:01.574Z,6.03
2018-06-05T04:34:31.245Z,6.33
2018-06-05T04:37:00.664Z,7.93
2018-06-05T04:39:31.283Z,5.07
2018-06-05T04:42:00.693Z,10.50
2018-06-05T04:44:29.879Z,6.87
2018-06-05T04:46:59.084Z,5.90
2018-06-05T04:49:28.524Z,8.10
2018-06-05T04:51:58.191Z,7.53
2018-06-05T04:54:27.614Z,7.80
2018-06-05T04:56:56.956Z,4.57
2018-06-05T04:59:26.418Z,6.73
2018-06-05T05:01:56.090Z,3.60
2018-06-05T05:04:25.499Z,4.57
2018-06-05T05:06:54.760Z,4.43
2018-06-05T05:09:24.816Z,7.07
2018-06-05T05:11:54.270Z,11.13
2018-06-05T05:14:23.673Z,4.60
2018-06-05T05:16:53.116Z,7.97
2018-06-05T05:19:22.773Z,6.00
2018-06-05T05:21:52.202Z,5.97
2018-06-05T05:24:21.417Z,6.17
2018-06-05T05:26:50.633Z,6.43
2018-06-05T05:29:19.845Z,6.67
2018-06-05T05:31:49.051Z,4.40
2018-06-05T05:34:18.492Z,3.93
2018-06-05T05:36:47.896Z,5.20
2018-06-05T05:39:17.344Z,4.60
2018-06-05T05:41:46.999Z,5.57
2018-06-05T05:44:16.694Z,4.67
2018-06-05T05:46:46.480Z,5.87
2018-06-05T05:49:16.142Z,7.23
2018-06-05T05:51:45.864Z,6.03
2018-06-05T05:54:15.275Z,6.00
2018-06-05T05:56:44.472Z,5.27
2018-06-05T05:59:13.712Z,6.13
2018-06-05T06:01:43.124Z,4.10
2018-06-05T06:04:12.540Z,3.90
2018-06-05T06:06:41.736Z,6.97
2018-06-05T06:09:12.779Z,5.37
2018-06-05T06:11:42.412Z,6.43
2018-06-05T06:14:11.833Z,5.10
2018-06-05T06:16:41.236Z,5.13
2018-06-05T06:19:10.891Z,7.87
2018-06-05T06:21:40.312Z,4.10
2018-06-05T06:24:09.927Z,4.53
2018-06-05T06:26:39.163Z,4.43
2018-06-05T06:29:08.631Z,5.10
2018-06-05T06:31:38.292Z,5.33
2018-06-05T06:34:07.732Z,3.93
2018-06-05T06:36:37.169Z,4.17
2018-06-05T06:39:10.186Z,4.40
2018-06-05T06:41:39.584Z,7.73
2018-06-05T06:44:08.824Z,4.67
2018-06-05T06:46:38.320Z,3.97
2018-06-05T06:49:07.986Z,8.73
2018-06-05T06:51:37.792Z,5.13
2018-06-05T06:54:07.377Z,4.70
2018-06-05T06:56:37.019Z,4.43
2018-06-05T06:59:06.680Z,4.53
2018-06-05T07:01:36.080Z,5.43
2018-06-05T07:04:05.260Z,4.40
2018-06-05T07:06:34.464Z,4.53
2018-06-05T07:09:05.738Z,4.90
2018-06-05T07:11:35.604Z,4.97
2018-06-05T07:14:05.036Z,5.70
2018-06-05T07:16:34.232Z,7.12
2018-06-05T07:19:03.498Z,4.97
2018-06-05T07:21:32.924Z,6.67
2018-06-05T07:24:02.438Z,6.23
2018-06-05T07:26:31.600Z,6.77
2018-06-05T07:29:00.782Z,4.57
2018-06-05T07:31:30.189Z,8.10
2018-06-05T07:33:59.630Z,6.60
2018-06-05T07:36:29.174Z,5.30
2018-06-05T07:38:58.576Z,6.17
2018-06-05T07:41:28.044Z,5.07
2018-06-05T07:43:57.449Z,5.37
2018-06-05T07:46:26.664Z,7.57
2018-06-05T07:48:56.112Z,5.13
2018-06-05T07:51:25.795Z,7.87
2018-06-05T07:53:55.215Z,7.20
2018-06-05T07:56:24.455Z,7.20
2018-06-05T07:58:53.952Z,5.80
2018-06-05T08:01:23.650Z,4.57
2018-06-05T08:03:53.053Z,5.53
2018-06-05T08:06:22.242Z,4.67
2018-06-05T08:08:51.682Z,6.43
2018-06-05T08:11:21.102Z,8.93
2018-06-05T08:13:50.287Z,4.70
2018-06-05T08:16:19.488Z,5.27
2018-06-05T08:18:48.692Z,6.53
2018-06-05T08:21:18.135Z,5.50
2018-06-05T08:23:47.538Z,6.33
2018-06-05T08:26:16.767Z,5.50
2018-06-05T08:28:46.216Z,8.17
2018-06-05T08:31:15.832Z,5.13
2018-06-05T08:33:51.824Z,7.00
2018-06-05T08:36:21.288Z,7.27
2018-06-05T08:38:50.942Z,4.10
2018-06-05T08:41:20.624Z,4.70
2018-06-05T08:43:50.024Z,7.00
2018-06-05T08:46:19.228Z,8.17
2018-06-05T08:48:48.471Z,5.20
2018-06-05T08:51:17.932Z,5.90
2018-06-05T08:53:47.604Z,6.33
2018-06-05T08:56:17.034Z,5.60
2018-06-05T08:58:46.440Z,5.63
2018-06-05T09:01:16.116Z,4.20
2018-06-05T09:03:45.518Z,6.40
2018-06-05T09:06:14.972Z,7.67
2018-06-05T09:08:44.626Z,5.90
2018-06-05T09:11:14.018Z,4.40
2018-06-05T09:13:43.206Z,7.33
2018-06-05T09:16:12.415Z,5.03
2018-06-05T09:18:41.850Z,4.47
2018-06-05T09:21:11.289Z,5.77
2018-06-05T09:23:40.471Z,4.93
2018-06-05T09:26:09.663Z,5.43
2018-06-05T09:28:39.090Z,5.83
2018-06-05T09:31:08.796Z,7.80
2018-06-05T09:33:38.436Z,5.30
2018-06-05T09:36:08.126Z,4.93
2018-06-05T09:38:37.570Z,6.63
2018-06-05T09:41:06.998Z,5.50
2018-06-05T09:43:36.230Z,4.80
2018-06-05T09:46:05.424Z,6.17
2018-06-05T09:48:34.834Z,5.40
2018-06-05T09:51:04.247Z,4.73
2018-06-05T09:53:33.450Z,4.57
2018-06-05T09:56:02.661Z,4.33
2018-06-05T09:58:31.973Z,6.73
2018-06-05T10:01:01.041Z,5.17
2018-06-05T10:03:30.335Z,5.53
2018-06-05T10:05:59.729Z,5.17
2018-06-05T10:08:29.164Z,5.70
2018-06-05T10:10:58.335Z,6.73
2018-06-05T10:13:27.518Z,5.67
2018-06-05T10:15:56.774Z,5.60
2018-06-05T10:18:26.230Z,4.70
2018-06-05T10:20:55.675Z,6.63
2018-06-05T10:23:24.886Z,6.23
2018-06-05T10:25:54.115Z,8.03
2018-06-05T10:28:23.323Z,5.87
2018-06-05T10:30:52.498Z,4.60
2018-06-05T10:33:21.968Z,7.33
2018-06-05T10:35:51.566Z,5.87
2018-06-05T10:38:20.772Z,5.17
2018-06-05T10:40:49.976Z,5.70
2018-06-05T10:43:19.186Z,5.20
2018-06-05T10:45:48.438Z,6.20
2018-06-05T10:48:18.500Z,6.10
2018-06-05T10:50:47.907Z,5.30
2018-06-05T10:53:17.368Z,4.13
2018-06-05T10:55:46.784Z,5.27
2018-06-05T10:58:16.205Z,7.60
2018-06-05T11:00:45.844Z,9.30
2018-06-05T11:03:15.230Z,5.73
2018-06-05T11:05:44.415Z,5.90
2018-06-05T11:08:13.626Z,6.57
2018-06-05T11:10:43.070Z,5.27
2018-06-05T11:13:12.728Z,5.40
2018-06-05T11:15:42.364Z,8.00
2018-06-05T11:18:11.772Z,6.27
2018-06-05T11:20:40.989Z,4.60
2018-06-05T11:23:10.200Z,5.30
2018-06-05T11:25:39.415Z,4.60
2018-06-05T11:28:08.644Z,4.30
2018-06-05T11:30:37.881Z,6.37
2018-06-05T11:33:07.344Z,6.00
2018-06-05T11:35:36.742Z,5.20
2018-06-05T11:38:06.000Z,4.67
2018-06-05T11:40:35.476Z,4.90
2018-06-05T11:43:05.173Z,5.20
2018-06-05T11:45:34.830Z,5.40
2018-06-05T11:48:04.508Z,6.93
2018-06-05T11:50:33.928Z,5.43
2018-06-05T11:53:03.368Z,4.53
2018-06-05T11:55:33.107Z,5.47
2018-06-05T11:58:02.724Z,4.87
2018-06-05T12:00:32.139Z,5.53
2018-06-05T12:03:01.546Z,4.97
2018-06-05T12:05:31.196Z,5.60
2018-06-05T12:08:00.612Z,4.33
2018-06-05T12:10:29.876Z,4.40
2018-06-05T12:12:59.375Z,4.13
2018-06-05T12:15:29.060Z,4.30
2018-06-05T12:17:58.672Z,5.97
2018-06-05T12:20:28.767Z,5.63
2018-06-05T12:22:57.977Z,4.93
2018-06-05T12:25:27.410Z,4.77
2018-06-05T12:27:57.043Z,4.37
2018-06-05T12:30:26.684Z,4.37
2018-06-05T12:32:56.317Z,5.83
2018-06-05T12:35:26.038Z,5.00
2018-06-05T12:37:55.664Z,5.03
2018-06-05T12:40:25.088Z,5.03
2018-06-05T12:42:54.297Z,4.30
2018-06-05T12:45:23.706Z,3.90
2018-06-05T12:47:53.095Z,5.03
2018-06-05T12:50:22.297Z,5.43
2018-06-05T12:52:51.521Z,5.10
2018-06-05T12:55:21.159Z,4.70
2018-06-05T12:57:50.548Z,4.90
2018-06-05T13:00:19.986Z,6.40
2018-06-05T13:02:49.367Z,4.43
2018-06-05T13:05:18.800Z,4.40
2018-06-05T13:07:48.201Z,4.93
2018-06-05T13:10:17.425Z,5.63
2018-06-05T13:12:46.668Z,4.40
2018-06-05T13:15:16.128Z,4.67
2018-06-05T13:17:45.553Z,5.27
2018-06-05T13:20:14.764Z,5.40
2018-06-05T13:22:44.233Z,5.43
2018-06-05T13:25:13.932Z,4.57
2018-06-05T13:27:43.564Z,4.80
2018-06-05T13:30:13.028Z,5.70
2018-06-05T13:32:42.261Z,6.03
2018-06-05T13:35:11.481Z,5.53
2018-06-05T13:37:40.694Z,5.20
2018-06-05T13:40:09.911Z,4.03
2018-06-05T13:42:39.121Z,7.83
2018-06-05T13:45:08.973Z,5.67
2018-06-05T13:47:38.165Z,4.30
2018-06-05T13:50:07.718Z,4.78
2018-06-05T13:52:38.342Z,3.60
2018-06-05T13:55:08.069Z,6.35
2018-06-05T13:57:37.605Z,4.50
2018-06-05T14:00:07.152Z,4.03
2018-06-05T14:02:36.688Z,6.87
2018-06-05T14:05:06.212Z,3.73
2018-06-05T14:07:35.907Z,5.03
2018-06-05T14:10:05.361Z,4.90
2018-06-05T14:12:34.835Z,4.80
2018-06-05T14:15:04.247Z,4.13
2018-06-05T14:17:33.484Z,4.07
2018-06-05T14:20:02.693Z,4.13
2018-06-05T14:22:31.896Z,4.73
2018-06-05T14:25:01.369Z,3.00
2018-06-05T14:27:30.801Z,3.30
2018-06-05T14:30:00.222Z,4.40
2018-06-05T14:32:29.634Z,3.20
2018-06-05T14:34:59.096Z,6.30
2018-06-05T14:37:28.496Z,4.77
2018-06-05T14:39:57.686Z,5.40
2018-06-05T14:42:27.167Z,4.77
2018-06-05T14:44:56.619Z,3.50
2018-06-05T14:47:25.817Z,4.20
2018-06-05T14:49:55.064Z,5.50
2018-06-05T14:52:24.511Z,3.93
2018-06-05T14:54:54.187Z,4.17
2018-06-05T14:57:23.617Z,3.40
2018-06-05T14:59:52.845Z,8.70
2018-06-05T15:02:22.312Z,3.67
2018-06-05T15:04:51.703Z,4.13
2018-06-05T15:07:20.932Z,3.37
2018-06-05T15:09:50.153Z,3.70
2018-06-05T15:12:19.397Z,3.87
2018-06-05T15:14:49.058Z,3.80
2018-06-05T15:17:18.300Z,5.70
2018-06-05T15:19:47.513Z,2.83
2018-06-05T15:22:17.052Z,3.30
2018-06-05T15:24:46.709Z,4.63
2018-06-05T15:27:16.146Z,6.93
2018-06-05T15:29:45.347Z,5.50
2018-06-05T15:32:14.883Z,3.93
2018-06-05T15:34:44.525Z,6.83
2018-06-05T15:37:13.965Z,6.63
2018-06-05T15:39:43.412Z,6.07
2018-06-05T15:42:12.857Z,7.83
2018-06-05T15:44:42.302Z,4.97
2018-06-05T15:47:11.740Z,9.77
2018-06-05T15:49:40.999Z,5.90
2018-06-05T15:52:11.281Z,7.23
2018-06-05T15:54:42.016Z,6.40
2018-06-05T15:57:11.424Z,6.10
2018-06-05T15:59:40.660Z,6.10
2018-06-05T16:02:09.848Z,8.00
2018-06-05T16:04:39.390Z,6.63
2018-06-05T16:07:08.783Z,5.97
2018-06-05T16:09:38.016Z,5.30
2018-06-05T16:12:07.581Z,4.30
2018-06-05T16:14:37.246Z,7.77
2018-06-05T16:17:06.718Z,6.87
2018-06-05T16:19:35.933Z,7.70
2018-06-05T16:22:05.124Z,10.17
2018-06-05T16:24:34.326Z,8.53
2018-06-05T16:27:03.617Z,6.07
2018-06-05T16:29:32.843Z,6.83
2018-06-05T16:32:02.326Z,6.93
2018-06-05T16:34:32.070Z,8.00
2018-06-05T16:37:01.488Z,8.00
2018-06-05T16:39:30.709Z,5.50
2018-06-05T16:41:59.964Z,5.87
2018-06-05T16:44:29.176Z,8.17
2018-06-05T16:46:58.415Z,7.03
2018-06-05T16:49:27.685Z,11.40
2018-06-05T16:51:57.128Z,9.03
2018-06-05T16:54:26.786Z,6.70
2018-06-05T16:56:56.196Z,8.27
2018-06-05T16:59:25.656Z,10.20
2018-06-05T17:01:55.345Z,6.87
2018-06-05T17:04:24.849Z,4.97
2018-06-05T17:06:54.014Z,6.60
2018-06-05T17:09:23.206Z,7.40
2018-06-05T17:11:52.411Z,5.43
2018-06-05T17:14:21.615Z,5.80
2018-06-05T17:16:50.832Z,5.90
2018-06-05T17:19:20.116Z,5.63
2018-06-05T17:21:49.290Z,6.47
2018-06-05T17:24:18.539Z,7.03
2018-06-05T17:26:47.808Z,7.07
2018-06-05T17:29:17.031Z,9.60
2018-06-05T17:31:46.541Z,6.70
2018-06-05T17:34:16.036Z,4.40
2018-06-05T17:36:45.247Z,6.57
2018-06-05T17:39:14.769Z,6.03
2018-06-05T17:41:45.245Z,6.60
2018-06-05T17:44:14.674Z,8.77
2018-06-05T17:46:44.118Z,8.63
2018-06-05T17:49:13.829Z,10.03
2018-06-05T17:51:43.315Z,13.60
2018-06-05T17:54:12.501Z,8.63
2018-06-05T17:56:41.729Z,8.67
2018-06-05T17:59:10.936Z,7.60
2018-06-05T18:01:40.125Z,6.90
2018-06-05T18:04:09.334Z,4.10
2018-06-05T18:06:38.571Z,6.60
2018-06-05T18:09:07.919Z,6.30
2018-06-05T18:11:37.184Z,11.07
2018-06-05T18:14:06.592Z,8.80
2018-06-05T18:16:36.095Z,9.37
2018-06-05T18:19:05.559Z,4.70
2018-06-05T18:21:35.248Z,4.77
2018-06-05T18:24:04.813Z,8.93
2018-06-05T18:26:34.450Z,7.37
2018-06-05T18:29:04.143Z,8.80
2018-06-05T18:31:33.580Z,8.73
2018-06-05T18:34:03.049Z,23.47
2018-06-05T18:36:32.507Z,8.90
2018-06-05T18:39:01.990Z,9.83
2018-06-05T18:41:31.408Z,11.50
2018-06-05T18:44:00.631Z,7.33
2018-06-05T18:46:29.891Z,7.30
2018-06-05T18:48:59.073Z,8.30
2018-06-05T18:51:28.295Z,8.87
2018-06-05T18:53:57.548Z,13.10
2018-06-05T18:56:26.885Z,14.13
2018-06-05T18:58:56.109Z,11.17
2018-06-05T19:01:25.639Z,7.90
2018-06-05T19:03:55.353Z,5.00
2018-06-05T19:06:24.791Z,11.13
2018-06-05T19:08:54.145Z,11.73
2018-06-05T19:11:23.593Z,7.27
2018-06-05T19:13:53.015Z,7.60
2018-06-05T19:16:22.236Z,9.30
2018-06-05T19:18:51.438Z,6.23
2018-06-05T19:21:20.663Z,8.00
2018-06-05T19:23:49.869Z,9.97
2018-06-05T19:26:26.111Z,9.37
2018-06-05T19:28:56.882Z,4.93
2018-06-05T19:31:26.313Z,9.20
2018-06-05T19:33:55.510Z,5.20
2018-06-05T19:36:24.757Z,10.00
2018-06-05T19:38:53.981Z,7.70
2018-06-05T19:41:23.194Z,10.90
2018-06-05T19:43:52.826Z,7.40
2018-06-05T19:46:22.291Z,8.47
2018-06-05T19:48:51.513Z,9.37
2018-06-05T19:51:20.745Z,9.67
2018-06-05T19:53:49.986Z,5.23
2018-06-05T19:56:19.221Z,7.90
2018-06-05T19:58:48.512Z,10.80
2018-06-05T20:01:17.927Z,6.27
2018-06-05T20:03:47.689Z,13.17
2018-06-05T20:06:16.972Z,12.83
2018-06-05T20:08:46.561Z,7.97
2018-06-05T20:11:16.251Z,8.70
2018-06-05T20:13:45.679Z,8.63
2018-06-05T20:16:14.903Z,11.47
2018-06-05T20:18:44.123Z,9.40
2018-06-05T20:21:13.443Z,7.37
2018-06-05T20:23:42.891Z,7.77
2018-06-05T20:26:12.318Z,11.60
2018-06-05T20:28:41.533Z,11.00
2018-06-05T20:31:11.054Z,9.67
2018-06-05T20:33:40.469Z,6.87
2018-06-05T20:36:09.939Z,8.00
2018-06-05T20:38:39.610Z,6.13
2018-06-05T20:41:09.315Z,7.40
2018-06-05T20:43:38.993Z,7.60
2018-06-05T20:46:08.467Z,6.93
2018-06-05T20:48:37.959Z,7.67
2018-06-05T20:51:07.657Z,12.30
2018-06-05T20:53:37.133Z,11.60
2018-06-05T20:56:07.182Z,13.67
2018-06-05T20:58:36.408Z,17.53
2018-06-05T21:01:05.610Z,7.17
2018-06-05T21:03:34.827Z,12.43
2018-06-05T21:06:04.032Z,10.27
2018-06-05T21:08:33.550Z,10.93
2018-06-05T21:11:03.207Z,9.63
2018-06-05T21:13:32.631Z,10.10
2018-06-05T21:16:01.864Z,12.47
2018-06-05T21:18:31.089Z,8.30
2018-06-05T21:21:00.329Z,9.90
2018-06-05T21:23:29.562Z,9.17
2018-06-05T21:25:58.787Z,10.23
2018-06-05T21:28:28.009Z,9.20
2018-06-05T21:30:57.217Z,9.77
2018-06-05T21:33:26.440Z,10.67
2018-06-05T21:35:55.619Z,11.37
2018-06-05T21:38:24.818Z,11.00
2018-06-05T21:40:54.316Z,8.67
2018-06-05T21:43:23.749Z,10.70
2018-06-05T21:45:53.181Z,9.50
2018-06-05T21:48:22.859Z,10.70
2018-06-05T21:50:52.551Z,14.03
2018-06-05T21:53:21.975Z,9.03
2018-06-05T21:55:51.203Z,11.53
2018-06-05T21:58:20.647Z,10.83
2018-06-05T22:00:50.092Z,10.73
2018-06-05T22:03:19.525Z,11.50
2018-06-05T22:05:48.965Z,10.73
2018-06-05T22:08:18.143Z,12.17
2018-06-05T22:10:47.591Z,8.53
2018-06-05T22:13:18.276Z,13.93
2018-06-05T22:15:47.703Z,10.30
2018-06-05T22:18:16.918Z,12.47
2018-06-05T22:20:46.161Z,12.77
2018-06-05T22:23:15.617Z,10.20
2018-06-05T22:25:45.047Z,10.00
2018-06-05T22:28:14.237Z,9.37
2018-06-05T22:30:43.441Z,8.43
2018-06-05T22:33:12.609Z,9.70
2018-06-05T22:35:41.803Z,11.73
2018-06-05T22:38:11.241Z,12.10
2018-06-05T22:40:40.720Z,13.60
2018-06-05T22:43:09.924Z,12.03
2018-06-05T22:45:39.181Z,8.70
2018-06-05T22:48:08.368Z,8.73
2018-06-05T22:50:37.589Z,11.30
2018-06-05T22:53:07.003Z,6.93
2018-06-05T22:55:36.419Z,9.23
2018-06-05T22:58:05.609Z,12.30
2018-06-05T23:00:35.083Z,8.03
2018-06-05T23:03:04.737Z,13.03
2018-06-05T23:05:34.149Z,9.03
2018-06-05T23:08:03.743Z,12.40
2018-06-05T23:10:33.175Z,12.27
2018-06-05T23:13:02.363Z,10.37
2018-06-05T23:15:31.841Z,10.83
2018-06-05T23:18:01.217Z,11.20
2018-06-05T23:20:30.459Z,8.63
2018-06-05T23:22:59.887Z,9.80
2018-06-05T23:25:29.540Z,13.63
2018-06-05T23:27:58.995Z,9.20
2018-06-05T23:30:28.478Z,14.07
2018-06-05T23:32:58.131Z,8.53
2018-06-05T23:35:27.811Z,7.77
2018-06-05T23:37:57.235Z,12.70
2018-06-05T23:40:26.659Z,9.60
2018-06-05T23:42:56.345Z,11.03
2018-06-05T23:45:25.763Z,7.90
2018-06-05T23:47:55.231Z,13.43
2018-06-05T23:50:24.655Z,9.97
2018-06-05T23:52:53.885Z,9.40
2018-06-05T23:55:23.303Z,12.50
2018-06-05T23:57:52.747Z,13.43
